Time;durP1;ratioP1;P1;durP2;ratioP2;P2;SDS_P1;SDS_P2;PMS_P1;PMS_P2;Temp;Humidity;BMP_temperature;BMP_pressure;BME280_temperature;BME280_humidity;BME280_pressure;Samples;Min_cycle;Max_cycle;Signal;HPM_P1;HPM_P2
2022/10/12 00:00:44;;;;;;;8.90;5.67;;;13.60;98.80;;;;;;5038518;28;20307;-87
2022/10/12 00:03:11;;;;;;;11.13;6.43;;;13.60;99.40;;;;;;5062450;28;20204;-86
2022/10/12 00:05:37;;;;;;;6.90;5.90;;;13.50;99.50;;;;;;5063283;28;20185;-87
2022/10/12 00:08:03;;;;;;;8.30;6.13;;;13.50;99.90;;;;;;5055531;28;20281;-87
2022/10/12 00:10:29;;;;;;;8.43;6.10;;;13.50;99.90;;;;;;5056107;28;20186;-86
2022/10/12 00:12:55;;;;;;;7.73;6.37;;;13.30;99.90;;;;;;5055070;28;20215;-86
2022/10/12 00:15:20;;;;;;;7.73;5.63;;;13.20;99.90;;;;;;5055217;28;20193;-86
2022/10/12 00:17:46;;;;;;;8.43;6.10;;;13.20;99.90;;;;;;5044124;28;20367;-86
2022/10/12 00:20:12;;;;;;;8.37;6.40;;;13.10;99.90;;;;;;5054862;28;20184;-86
2022/10/12 00:22:38;;;;;;;8.77;6.37;;;13.10;99.90;;;;;;5058891;28;20254;-86
2022/10/12 00:25:04;;;;;;;8.10;5.53;;;13.10;99.90;;;;;;5058605;28;20188;-86
2022/10/12 00:27:29;;;;;;;10.57;6.17;;;13.00;99.90;;;;;;5053238;28;20216;-86
2022/10/12 00:29:55;;;;;;;8.23;5.33;;;13.00;99.90;;;;;;5057096;28;20267;-87
2022/10/12 00:32:21;;;;;;;6.30;5.70;;;13.10;99.90;;;;;;5047652;28;20201;-86
2022/10/12 00:34:46;;;;;;;6.87;6.00;;;13.00;99.90;;;;;;5057919;28;20623;-86
2022/10/12 00:37:12;;;;;;;6.50;5.60;;;13.00;99.90;;;;;;5058869;28;20197;-86
2022/10/12 00:39:38;;;;;;;7.60;5.70;;;12.90;99.90;;;;;;5059022;28;20185;-86
2022/10/12 00:42:03;;;;;;;6.80;5.27;;;12.90;99.90;;;;;;5058538;28;20291;-86
2022/10/12 00:44:42;;;;;;;10.43;5.80;;;12.80;99.90;;;;;;5058349;28;20191;-86
2022/10/12 00:47:26;;;;;;;7.00;5.40;;;12.80;99.90;;;;;;5058308;28;20213;-86
2022/10/12 00:50:00;;;;;;;6.57;5.30;;;12.80;99.90;;;;;;5051960;28;20179;-86
2022/10/12 00:53:07;;;;;;;8.70;5.37;;;12.70;99.90;;;;;;5051062;28;20230;-86
2022/10/12 00:55:37;;;;;;;6.27;4.90;;;12.70;99.90;;;;;;5055174;28;20190;-86
2022/10/12 00:58:05;;;;;;;9.57;5.60;;;12.80;99.90;;;;;;5054910;28;20572;-86
2022/10/12 01:00:31;;;;;;;9.37;5.20;;;12.70;99.90;;;;;;5054674;28;20216;-86
2022/10/12 01:02:57;;;;;;;8.93;5.00;;;12.70;99.90;;;;;;5055608;28;20202;-86
2022/10/12 01:05:23;;;;;;;8.60;4.90;;;12.70;99.90;;;;;;5057903;28;20184;-86
2022/10/12 01:07:49;;;;;;;9.43;5.20;;;12.70;99.80;;;;;;5050218;28;20235;-86
2022/10/12 01:10:15;;;;;;;7.80;5.03;;;12.70;99.80;;;;;;5053785;28;20252;-86
2022/10/12 01:12:42;;;;;;;5.80;5.23;;;12.70;98.90;;;;;;5057050;28;20303;-86
2022/10/12 01:15:10;;;;;;;7.90;5.00;;;12.80;99.10;;;;;;5053763;28;20193;-86
2022/10/12 01:17:35;;;;;;;7.87;5.07;;;12.70;99.60;;;;;;5037213;28;20283;-86
2022/10/12 01:20:22;;;;;;;6.57;5.10;;;12.70;99.90;;;;;;5055265;28;20208;-86
2022/10/12 01:23:04;;;;;;;5.83;4.93;;;12.80;98.90;;;;;;5055390;28;20207;-86
2022/10/12 01:26:08;;;;;;;6.30;4.50;;;12.90;98.20;;;;;;5053462;28;20679;-86
2022/10/12 01:28:57;;;;;;;10.97;5.10;;;12.80;97.90;;;;;;5054185;28;20200;-86
2022/10/12 01:31:41;;;;;;;7.37;5.03;;;12.80;98.80;;;;;;5056078;28;20191;-87
2022/10/12 01:34:20;;;;;;;5.97;4.80;;;12.80;97.60;;;;;;5042825;28;20229;-86
2022/10/12 01:37:11;;;;;;;7.73;4.73;;;12.70;98.70;;;;;;5056098;28;20644;-86
2022/10/12 01:39:47;;;;;;;6.73;5.20;;;12.70;99.70;;;;;;5056790;28;20348;-86
2022/10/12 01:42:22;;;;;;;7.10;5.23;;;12.70;98.60;;;;;;5053481;28;20287;-86
2022/10/12 01:44:47;;;;;;;5.60;4.70;;;12.60;98.20;;;;;;5063975;28;20211;-86
2022/10/12 01:47:13;;;;;;;7.67;5.43;;;12.50;99.30;;;;;;5057360;28;20211;-86
2022/10/12 01:49:39;;;;;;;9.30;5.63;;;12.40;99.70;;;;;;5057304;28;20545;-86
2022/10/12 01:52:17;;;;;;;10.70;5.07;;;12.50;99.10;;;;;;5057123;28;20227;-86
2022/10/12 01:55:01;;;;;;;10.63;4.67;;;12.40;99.30;;;;;;5050772;28;20186;-86
2022/10/12 01:57:32;;;;;;;5.97;4.43;;;12.40;99.40;;;;;;5052292;28;20191;-86
2022/10/12 02:00:07;;;;;;;7.20;4.90;;;12.40;99.00;;;;;;5058574;28;20194;-86
2022/10/12 02:02:42;;;;;;;8.50;4.93;;;12.20;99.10;;;;;;5054673;28;20312;-86
2022/10/12 02:05:21;;;;;;;9.30;4.83;;;12.30;99.50;;;;;;5052790;28;20174;-86
2022/10/12 02:07:49;;;;;;;6.23;4.53;;;12.30;99.30;;;;;;5049192;28;20227;-86
2022/10/12 02:10:49;;;;;;;8.93;5.27;;;12.40;98.40;;;;;;5050593;28;20198;-87
2022/10/12 02:13:18;;;;;;;6.60;4.70;;;12.30;98.10;;;;;;5048568;28;20265;-87
2022/10/12 02:15:47;;;;;;;7.20;4.77;;;12.30;98.10;;;;;;5052458;28;20710;-87
2022/10/12 02:18:17;;;;;;;9.03;4.57;;;12.20;98.30;;;;;;5054477;28;20297;-86
2022/10/12 02:20:46;;;;;;;6.80;4.83;;;12.10;98.80;;;;;;5050650;28;20200;-86
2022/10/12 02:23:13;;;;;;;7.33;5.23;;;12.20;98.60;;;;;;5048595;28;20246;-86
2022/10/12 02:25:40;;;;;;;9.33;4.90;;;12.20;98.40;;;;;;5054151;28;20226;-87
2022/10/12 02:28:12;;;;;;;9.30;4.70;;;12.20;98.60;;;;;;5054343;28;20605;-87
2022/10/12 02:30:56;;;;;;;9.33;4.80;;;12.30;97.50;;;;;;5052315;28;20286;-86
2022/10/12 02:33:50;;;;;;;9.97;4.93;;;12.20;97.90;;;;;;5053220;28;20209;-86
2022/10/12 02:36:48;;;;;;;9.20;5.13;;;12.10;97.90;;;;;;5042917;28;20280;-86
2022/10/12 02:39:16;;;;;;;5.57;4.53;;;12.10;98.30;;;;;;5047205;28;20229;-86
2022/10/12 02:41:48;;;;;;;5.40;4.63;;;12.00;97.80;;;;;;5073453;28;20211;-86
2022/10/12 02:44:18;;;;;;;7.03;4.60;;;12.10;97.60;;;;;;5064437;28;20187;-86
2022/10/12 02:46:46;;;;;;;7.30;4.57;;;12.10;96.70;;;;;;5055242;28;20210;-86
2022/10/12 02:49:13;;;;;;;8.37;4.83;;;12.10;96.70;;;;;;5053532;28;20198;-86
2022/10/12 02:51:41;;;;;;;8.63;5.17;;;12.10;96.60;;;;;;5053457;28;20521;-86
2022/10/12 02:54:07;;;;;;;10.10;5.53;;;12.10;95.60;;;;;;5050761;28;20210;-86
2022/10/12 02:56:32;;;;;;;7.07;5.23;;;12.10;96.30;;;;;;5053067;28;20192;-86
2022/10/12 02:58:58;;;;;;;7.07;5.07;;;12.10;96.00;;;;;;5052968;28;20849;-86
2022/10/12 03:01:24;;;;;;;10.20;5.00;;;12.00;96.30;;;;;;5066163;28;20238;-87
2022/10/12 03:03:49;;;;;;;7.67;5.23;;;11.90;96.20;;;;;;5052499;28;20205;-86
2022/10/12 03:06:15;;;;;;;5.90;4.77;;;11.80;96.90;;;;;;5052316;28;20221;-86
2022/10/12 03:08:41;;;;;;;6.03;5.00;;;11.80;97.30;;;;;;5058073;28;20198;-86
2022/10/12 03:11:10;;;;;;;8.37;4.60;;;11.80;97.00;;;;;;5038815;28;20645;-86
2022/10/12 03:13:36;;;;;;;8.63;5.00;;;11.90;97.30;;;;;;5053607;28;20203;-87
2022/10/12 03:16:07;;;;;;;6.93;4.67;;;11.80;96.50;;;;;;5055306;28;20210;-86
2022/10/12 03:18:33;;;;;;;10.97;5.23;;;11.90;96.90;;;;;;5051618;28;20510;-86
2022/10/12 03:20:59;;;;;;;9.30;5.00;;;11.80;96.60;;;;;;5054410;28;20267;-87
2022/10/12 03:23:25;;;;;;;7.30;4.77;;;11.90;96.70;;;;;;5053109;28;20220;-86
2022/10/12 03:25:52;;;;;;;5.30;4.70;;;11.80;97.20;;;;;;5052826;28;20719;-87
2022/10/12 03:28:18;;;;;;;6.30;4.97;;;11.90;96.80;;;;;;5057631;28;20552;-87
2022/10/12 03:30:43;;;;;;;6.63;5.00;;;11.90;96.30;;;;;;5053273;28;20202;-86
2022/10/12 03:33:09;;;;;;;5.43;4.53;;;11.90;97.00;;;;;;5050845;28;20296;-86
2022/10/12 03:35:35;;;;;;;7.90;4.73;;;11.90;95.80;;;;;;5052815;28;20194;-86
2022/10/12 03:38:01;;;;;;;9.43;5.23;;;11.90;95.20;;;;;;5050585;28;20198;-85
2022/10/12 03:40:26;;;;;;;6.90;4.47;;;11.90;95.50;;;;;;5052417;28;20317;-87
2022/10/12 03:42:52;;;;;;;6.53;4.57;;;11.80;95.80;;;;;;5054003;28;20222;-88
2022/10/12 03:45:18;;;;;;;8.23;4.53;;;11.90;95.50;;;;;;5054702;28;20199;-87
2022/10/12 03:47:43;;;;;;;7.93;4.87;;;11.70;96.00;;;;;;5046719;28;20211;-87
2022/10/12 03:50:09;;;;;;;6.23;4.67;;;11.80;96.10;;;;;;5055758;28;20278;-87
2022/10/12 03:52:35;;;;;;;7.43;4.60;;;11.90;96.80;;;;;;5055195;28;20227;-87
2022/10/12 03:55:07;;;;;;;6.50;4.80;;;11.90;95.90;;;;;;5050943;28;20214;-87
2022/10/12 03:57:33;;;;;;;7.77;4.93;;;11.90;95.30;;;;;;5053264;28;20204;-89
2022/10/12 03:59:59;;;;;;;7.17;4.53;;;11.90;96.20;;;;;;5065298;28;20195;-88
2022/10/12 04:02:24;;;;;;;10.30;5.07;;;11.90;95.90;;;;;;5059221;28;20220;-88
2022/10/12 04:04:50;;;;;;;7.03;4.57;;;11.90;94.70;;;;;;5058737;28;20199;-88
2022/10/12 04:07:16;;;;;;;7.03;4.87;;;11.90;94.70;;;;;;5057768;28;20204;-88
2022/10/12 04:09:41;;;;;;;5.43;4.20;;;11.90;94.70;;;;;;5053971;28;20199;-89
2022/10/12 04:12:07;;;;;;;7.23;4.87;;;11.90;94.50;;;;;;5057341;28;20223;-89
2022/10/12 04:14:33;;;;;;;7.80;4.47;;;11.90;94.80;;;;;;5053740;28;20180;-89
2022/10/12 04:16:59;;;;;;;4.90;4.07;;;11.80;94.20;;;;;;5061193;28;20206;-89
2022/10/12 04:19:26;;;;;;;8.27;4.43;;;11.90;94.70;;;;;;5060925;28;20184;-89
2022/10/12 04:21:52;;;;;;;8.57;4.63;;;12.00;95.40;;;;;;5024507;28;20275;-90
2022/10/12 04:24:17;;;;;;;6.63;4.77;;;12.10;94.20;;;;;;5039509;28;20207;-89
2022/10/12 04:26:43;;;;;;;9.00;5.03;;;12.10;93.40;;;;;;5053930;28;20247;-88
2022/10/12 04:29:11;;;;;;;7.53;4.80;;;12.10;93.90;;;;;;5056608;28;20661;-87
2022/10/12 04:31:37;;;;;;;5.83;4.87;;;12.10;93.60;;;;;;5056859;28;20184;-87
2022/10/12 04:34:02;;;;;;;7.13;4.77;;;12.10;94.80;;;;;;5058641;28;20204;-87
2022/10/12 04:36:28;;;;;;;8.63;4.47;;;12.10;94.30;;;;;;5060321;28;20224;-87
2022/10/12 04:38:54;;;;;;;6.20;4.80;;;12.20;94.20;;;;;;5057195;28;20188;-87
2022/10/12 04:41:19;;;;;;;8.70;4.93;;;12.20;93.30;;;;;;5049181;28;20707;-87
2022/10/12 04:43:45;;;;;;;7.50;4.43;;;12.20;93.70;;;;;;5056857;28;20700;-87
2022/10/12 04:46:11;;;;;;;7.13;4.90;;;12.20;93.90;;;;;;5042130;28;20192;-87
2022/10/12 04:48:36;;;;;;;6.80;5.13;;;12.20;93.70;;;;;;5056931;28;20223;-87
2022/10/12 04:51:03;;;;;;;6.30;5.13;;;12.20;94.00;;;;;;5057716;28;20185;-87
2022/10/12 04:53:29;;;;;;;9.63;7.57;;;12.30;93.80;;;;;;5058045;28;20223;-86
2022/10/12 04:55:55;;;;;;;8.57;5.40;;;12.40;94.00;;;;;;5052175;28;20182;-86
2022/10/12 04:58:20;;;;;;;9.27;4.67;;;12.50;93.90;;;;;;5054954;28;20186;-86
2022/10/12 05:00:47;;;;;;;5.77;4.73;;;12.50;93.80;;;;;;5056976;28;20190;-86
2022/10/12 05:03:13;;;;;;;8.53;4.90;;;12.50;93.90;;;;;;5057782;28;20209;-87
2022/10/12 05:05:39;;;;;;;5.87;5.00;;;12.50;94.10;;;;;;5050891;28;20192;-86
2022/10/12 05:08:05;;;;;;;7.30;4.50;;;12.50;93.00;;;;;;5055342;28;20205;-86
2022/10/12 05:10:31;;;;;;;6.47;4.60;;;12.50;93.20;;;;;;5064602;28;20180;-88
2022/10/12 05:12:57;;;;;;;8.33;4.50;;;12.50;93.80;;;;;;5052179;28;20217;-88
2022/10/12 05:15:23;;;;;;;8.23;4.47;;;12.50;93.60;;;;;;5055007;28;20185;-88
2022/10/12 05:17:48;;;;;;;5.50;4.67;;;12.60;93.80;;;;;;5053680;28;20268;-88
2022/10/12 05:20:14;;;;;;;6.87;4.33;;;12.50;93.60;;;;;;5054126;28;20522;-88
2022/10/12 05:22:40;;;;;;;6.70;4.93;;;12.40;93.10;;;;;;5056208;28;20216;-88
2022/10/12 05:25:06;;;;;;;5.60;4.23;;;12.50;94.20;;;;;;5055461;28;20204;-88
2022/10/12 05:27:32;;;;;;;7.30;4.30;;;12.60;93.80;;;;;;5055875;28;20227;-88
2022/10/12 05:29:58;;;;;;;5.53;4.57;;;12.70;93.50;;;;;;5055670;28;20184;-88
2022/10/12 05:32:24;;;;;;;8.97;4.80;;;12.70;92.90;;;;;;5057373;28;20213;-88
2022/10/12 05:34:49;;;;;;;7.67;5.23;;;12.80;92.50;;;;;;5055786;28;20198;-88
2022/10/12 05:37:15;;;;;;;6.43;4.93;;;12.70;92.20;;;;;;5057537;28;20191;-88
2022/10/12 05:39:41;;;;;;;8.30;5.90;;;12.50;93.60;;;;;;5058773;28;20191;-87
2022/10/12 05:42:07;;;;;;;7.60;5.00;;;12.50;92.80;;;;;;5057664;28;20236;-87
2022/10/12 05:44:33;;;;;;;5.83;4.80;;;12.50;93.90;;;;;;5056741;28;20260;-87
2022/10/12 05:46:59;;;;;;;6.23;4.53;;;12.40;94.40;;;;;;5056014;28;20607;-87
2022/10/12 05:49:24;;;;;;;20.10;16.43;;;12.40;95.00;;;;;;5057630;28;20189;-87
2022/10/12 05:51:50;;;;;;;11.90;10.23;;;12.50;94.90;;;;;;5048540;28;20250;-88
2022/10/12 05:54:19;;;;;;;9.63;4.50;;;12.50;94.50;;;;;;5053200;28;20207;-88
2022/10/12 05:56:45;;;;;;;5.77;4.77;;;12.50;95.00;;;;;;5052208;28;20242;-89
2022/10/12 05:59:11;;;;;;;6.37;4.70;;;12.60;94.40;;;;;;5054108;28;20196;-88
2022/10/12 06:01:36;;;;;;;6.60;4.27;;;12.50;94.20;;;;;;5056480;28;20219;-87
2022/10/12 06:04:02;;;;;;;7.77;4.33;;;12.50;94.60;;;;;;5059375;28;20249;-88
2022/10/12 06:06:28;;;;;;;6.57;4.30;;;12.50;93.70;;;;;;5065034;28;20233;-89
2022/10/12 06:08:54;;;;;;;8.50;4.47;;;12.50;95.20;;;;;;5072136;28;20177;-88
2022/10/12 06:11:20;;;;;;;11.20;5.07;;;12.40;95.40;;;;;;5062655;28;20212;-87
2022/10/12 06:13:46;;;;;;;6.07;4.30;;;12.30;95.60;;;;;;5058685;28;20300;-88
2022/10/12 06:16:11;;;;;;;8.03;4.60;;;12.30;95.80;;;;;;5055770;28;20581;-89
2022/10/12 06:18:37;;;;;;;9.70;4.60;;;12.30;96.60;;;;;;5054165;28;20197;-87
2022/10/12 06:21:03;;;;;;;7.80;4.47;;;12.20;97.50;;;;;;5052901;28;20202;-88
2022/10/12 06:23:29;;;;;;;5.27;4.70;;;12.00;98.80;;;;;;5054343;28;20236;-87
2022/10/12 06:25:55;;;;;;;9.40;4.70;;;12.10;99.00;;;;;;5053775;28;20230;-87
2022/10/12 06:28:20;;;;;;;8.20;4.50;;;12.10;97.10;;;;;;5054574;28;20183;-87
2022/10/12 06:30:52;;;;;;;7.17;5.20;;;12.10;97.00;;;;;;5069487;28;20212;-87
2022/10/12 06:33:18;;;;;;;6.60;5.50;;;12.10;97.50;;;;;;5065002;28;20295;-87
2022/10/12 06:35:44;;;;;;;9.37;8.60;;;12.10;97.60;;;;;;5062291;28;20203;-88
2022/10/12 06:38:10;;;;;;;8.13;5.47;;;12.20;95.90;;;;;;5063013;28;20196;-87
2022/10/12 06:40:35;;;;;;;8.70;5.03;;;12.30;95.90;;;;;;5055219;28;20215;-87
2022/10/12 06:43:01;;;;;;;8.13;5.30;;;12.40;94.60;;;;;;5053109;28;20287;-87
2022/10/12 06:45:28;;;;;;;6.07;4.47;;;12.50;93.90;;;;;;5051873;28;20184;-87
2022/10/12 06:47:55;;;;;;;7.20;4.63;;;12.50;93.80;;;;;;5052156;28;20701;-87
2022/10/12 06:50:20;;;;;;;8.37;5.17;;;12.60;93.40;;;;;;5062117;28;20285;-88
2022/10/12 06:52:46;;;;;;;6.93;5.13;;;12.50;92.20;;;;;;5040033;28;20255;-87
2022/10/12 06:55:12;;;;;;;7.37;5.37;;;12.50;93.10;;;;;;5038296;28;20242;-87
2022/10/12 06:57:38;;;;;;;9.47;5.40;;;12.40;93.20;;;;;;5037515;28;20201;-87
2022/10/12 07:00:05;;;;;;;9.67;5.37;;;12.40;93.60;;;;;;5041510;28;20196;-88
2022/10/12 07:02:32;;;;;;;10.20;5.50;;;12.50;92.70;;;;;;5047698;28;20213;-87
2022/10/12 07:04:57;;;;;;;6.63;5.30;;;12.50;92.70;;;;;;5071411;28;20186;-88
2022/10/12 07:07:23;;;;;;;10.30;5.93;;;12.40;91.80;;;;;;5047828;28;20306;-87
2022/10/12 07:09:50;;;;;;;10.20;5.73;;;12.40;93.20;;;;;;5037322;28;20197;-87
2022/10/12 07:12:16;;;;;;;8.90;5.73;;;12.30;93.60;;;;;;5038539;28;20201;-87
2022/10/12 07:14:42;;;;;;;10.20;5.13;;;12.30;93.70;;;;;;5043075;28;20544;-87
2022/10/12 07:17:08;;;;;;;7.50;5.33;;;12.30;94.30;;;;;;5041403;28;20192;-87
2022/10/12 07:19:33;;;;;;;9.30;5.70;;;12.40;94.90;;;;;;5041968;28;20219;-87
2022/10/12 07:22:00;;;;;;;8.37;4.97;;;12.50;93.00;;;;;;5039858;28;20960;-87
2022/10/12 07:24:34;;;;;;;7.77;5.33;;;12.50;93.00;;;;;;5034802;28;20191;-88
2022/10/12 07:27:00;;;;;;;12.10;6.03;;;12.60;92.60;;;;;;5034907;28;20211;-87
2022/10/12 07:29:26;;;;;;;8.47;6.03;;;12.40;93.40;;;;;;5047145;28;20207;-87
2022/10/12 07:31:52;;;;;;;10.63;6.20;;;12.50;93.20;;;;;;5048085;28;20214;-87
2022/10/12 07:34:17;;;;;;;11.17;6.50;;;12.50;93.50;;;;;;5053936;28;20206;-88
2022/10/12 07:36:43;;;;;;;13.33;8.10;;;12.50;94.60;;;;;;5060414;28;20173;-87
2022/10/12 07:39:09;;;;;;;8.03;6.57;;;12.50;95.10;;;;;;5043313;28;20196;-87
2022/10/12 07:41:35;;;;;;;9.33;7.20;;;12.40;96.50;;;;;;5035028;28;20186;-88
2022/10/12 07:44:01;;;;;;;11.27;7.87;;;12.60;95.10;;;;;;5037136;28;20188;-87
2022/10/12 07:46:26;;;;;;;14.57;8.33;;;12.70;95.30;;;;;;5035895;28;20765;-87
2022/10/12 07:48:52;;;;;;;14.20;9.30;;;12.70;96.30;;;;;;5039060;28;20192;-87
2022/10/12 07:51:18;;;;;;;18.23;11.00;;;12.60;97.40;;;;;;5039693;28;20681;-88
2022/10/12 07:53:43;;;;;;;13.17;9.33;;;12.50;98.30;;;;;;5039835;28;20663;-87
2022/10/12 07:56:14;;;;;;;15.53;8.93;;;12.50;99.00;;;;;;5036473;28;20240;-87
2022/10/12 07:58:47;;;;;;;16.27;8.83;;;12.50;97.30;;;;;;5038818;28;20682;-88
2022/10/12 08:01:13;;;;;;;14.97;9.17;;;12.80;96.90;;;;;;5037459;28;20234;-87
2022/10/12 08:03:38;;;;;;;11.73;8.70;;;12.90;96.00;;;;;;5037452;28;20731;-88
2022/10/12 08:06:13;;;;;;;12.43;9.60;;;12.90;96.20;;;;;;5035403;28;20959;-87
2022/10/12 08:08:39;;;;;;;13.90;8.27;;;12.90;97.00;;;;;;5041085;28;20185;-87
2022/10/12 08:11:06;;;;;;;11.70;8.50;;;12.90;97.00;;;;;;5042049;28;20185;-87
2022/10/12 08:13:32;;;;;;;9.57;7.73;;;13.00;95.60;;;;;;5037318;28;20624;-87
2022/10/12 08:15:59;;;;;;;16.33;9.50;;;13.10;95.10;;;;;;5036529;28;20181;-87
2022/10/12 08:18:25;;;;;;;24.63;11.17;;;13.20;95.50;;;;;;5036922;28;20194;-87
2022/10/12 08:20:51;;;;;;;12.67;9.20;;;13.00;97.00;;;;;;5038606;28;20187;-87
2022/10/12 08:23:17;;;;;;;12.17;9.37;;;13.00;97.30;;;;;;5037691;28;20931;-88
2022/10/12 08:25:54;;;;;;;14.83;9.50;;;13.00;96.50;;;;;;5036021;28;20658;-87
2022/10/12 08:28:20;;;;;;;13.83;9.70;;;13.10;96.00;;;;;;5038291;28;20179;-87
2022/10/12 08:30:46;;;;;;;15.30;9.70;;;13.30;95.00;;;;;;5039647;28;20183;-87
2022/10/12 08:33:14;;;;;;;12.97;9.37;;;13.30;95.40;;;;;;5038081;28;20810;-87
2022/10/12 08:35:41;;;;;;;16.13;9.50;;;13.10;96.90;;;;;;5034573;28;20183;-87
2022/10/12 08:38:08;;;;;;;14.17;10.27;;;13.10;97.40;;;;;;5031356;28;20197;-87
2022/10/12 08:40:48;;;;;;;15.13;10.73;;;13.10;96.60;;;;;;5035391;28;20210;-87
2022/10/12 08:43:36;;;;;;;15.20;9.97;;;12.90;97.80;;;;;;5040091;28;20215;-88
2022/10/12 08:46:03;;;;;;;14.10;9.57;;;13.10;97.10;;;;;;5043773;28;20187;-87
2022/10/12 08:48:55;;;;;;;11.43;9.47;;;13.10;97.10;;;;;;5038969;28;20719;-86
2022/10/12 08:51:25;;;;;;;12.83;10.33;;;13.30;95.50;;;;;;5034146;28;20320;-87
2022/10/12 08:54:07;;;;;;;15.80;12.00;;;13.50;94.40;;;;;;5036394;28;20285;-87
2022/10/12 08:56:38;;;;;;;16.20;10.30;;;13.40;95.50;;;;;;5032993;28;20221;-87
2022/10/12 08:59:04;;;;;;;15.47;11.00;;;13.60;95.10;;;;;;5038067;28;20764;-88
2022/10/12 09:01:36;;;;;;;13.23;10.47;;;13.60;94.70;;;;;;5042764;28;20194;-87
2022/10/12 09:04:13;;;;;;;15.30;10.57;;;13.50;95.90;;;;;;5038751;28;20203;-88
2022/10/12 09:07:00;;;;;;;12.87;10.00;;;13.60;95.10;;;;;;5037524;28;20276;-88
2022/10/12 09:09:51;;;;;;;27.03;13.73;;;14.00;93.30;;;;;;5056530;28;20220;-88
2022/10/12 09:12:44;;;;;;;24.00;11.47;;;14.20;96.20;;;;;;5036629;28;20676;-88
2022/10/12 09:15:17;;;;;;;15.53;9.23;;;14.30;92.70;;;;;;5037925;28;20192;-87
2022/10/12 09:17:51;;;;;;;12.73;9.67;;;14.50;92.60;;;;;;5040814;28;20196;-87
2022/10/12 09:20:19;;;;;;;12.13;8.80;;;14.70;91.10;;;;;;5039226;28;20184;-87
2022/10/12 09:22:52;;;;;;;14.27;9.40;;;14.90;89.80;;;;;;5037911;28;20198;-88
2022/10/12 09:25:22;;;;;;;16.40;10.00;;;14.90;89.10;;;;;;5054308;28;20220;-87
2022/10/12 09:27:48;;;;;;;15.40;10.13;;;14.90;90.50;;;;;;5039748;28;20258;-88
2022/10/12 09:30:16;;;;;;;14.57;10.13;;;15.10;89.10;;;;;;5036514;28;20223;-87
2022/10/12 09:32:55;;;;;;;14.33;9.70;;;15.10;88.80;;;;;;5043013;28;20215;-87
2022/10/12 09:35:20;;;;;;;13.60;9.70;;;15.00;90.60;;;;;;5038575;28;20195;-87
2022/10/12 09:37:51;;;;;;;14.67;8.50;;;15.00;90.10;;;;;;5057259;28;20192;-87
2022/10/12 09:40:31;;;;;;;16.47;10.07;;;15.30;89.50;;;;;;5053500;28;20189;-87
2022/10/12 09:42:59;;;;;;;16.17;9.83;;;15.60;87.70;;;;;;5045499;28;20376;-87
2022/10/12 09:45:27;;;;;;;14.87;9.00;;;15.70;88.00;;;;;;5043821;28;20553;-87
2022/10/12 09:48:13;;;;;;;17.30;10.37;;;15.70;87.70;;;;;;5044432;28;20215;-88
2022/10/12 09:50:54;;;;;;;15.70;9.63;;;15.70;87.80;;;;;;5049924;28;20507;-87
2022/10/12 09:53:26;;;;;;;13.87;9.00;;;15.60;89.30;;;;;;5048218;28;20235;-87
2022/10/12 09:55:58;;;;;;;15.83;9.70;;;15.60;88.50;;;;;;5039697;28;20242;-87
2022/10/12 09:58:26;;;;;;;18.40;10.60;;;15.80;88.00;;;;;;5046649;28;20282;-87
2022/10/12 10:01:18;;;;;;;15.03;9.40;;;15.80;87.60;;;;;;5053744;28;20268;-86
2022/10/12 10:03:45;;;;;;;15.77;9.90;;;15.90;88.70;;;;;;5049746;28;20229;-87
2022/10/12 10:06:11;;;;;;;14.53;9.20;;;15.90;88.00;;;;;;5050802;28;20252;-87
2022/10/12 10:08:44;;;;;;;12.00;10.00;;;16.20;86.10;;;;;;5049310;28;20189;-87
2022/10/12 10:11:22;;;;;;;12.93;9.70;;;16.60;83.40;;;;;;5048040;28;20762;-87
2022/10/12 10:13:53;;;;;;;17.67;10.57;;;17.00;80.90;;;;;;5050088;28;20233;-87
2022/10/12 10:16:23;;;;;;;11.95;9.07;;;17.30;78.90;;;;;;5050462;28;20555;-87
2022/10/12 10:19:00;;;;;;;15.38;10.57;;;17.60;78.10;;;;;;5049065;28;20198;-87
2022/10/12 10:21:31;;;;;;;14.88;9.38;;;17.70;77.70;;;;;;5049656;28;20199;-86
2022/10/12 10:24:20;;;;;;;12.02;9.82;;;17.80;77.10;;;;;;5047334;28;20251;-86
2022/10/12 10:26:53;;;;;;;10.48;9.32;;;17.90;75.80;;;;;;5050265;28;20211;-86
2022/10/12 10:29:40;;;;;;;11.63;9.63;;;18.00;75.40;;;;;;5034958;28;20188;-87
2022/10/12 10:32:25;;;;;;;16.05;10.45;;;18.20;76.40;;;;;;5051048;28;20204;-87
2022/10/12 10:35:18;;;;;;;11.90;10.20;;;18.20;74.70;;;;;;5051840;28;20179;-87
2022/10/12 10:37:56;;;;;;;13.15;10.00;;;18.20;76.20;;;;;;5052459;28;20219;-86
2022/10/12 10:40:28;;;;;;;14.25;10.30;;;18.30;75.00;;;;;;5049032;28;20181;-86
2022/10/12 10:43:05;;;;;;;16.30;10.55;;;18.40;75.10;;;;;;5048407;28;20215;-86
2022/10/12 10:45:47;;;;;;;12.10;10.77;;;18.50;75.40;;;;;;5048308;28;20191;-87
2022/10/12 10:48:28;;;;;;;14.80;10.05;;;18.60;74.00;;;;;;5047943;28;20208;-87
2022/10/12 10:51:02;;;;;;;13.20;9.88;;;18.50;74.30;;;;;;5048019;28;20645;-87
2022/10/12 10:53:46;;;;;;;14.35;10.20;;;18.50;74.70;;;;;;5048133;28;20278;-87
2022/10/12 10:56:25;;;;;;;13.00;9.85;;;19.00;72.10;;;;;;5045334;28;20198;-87
2022/10/12 10:58:54;;;;;;;13.35;10.13;;;19.20;71.10;;;;;;5035449;28;20209;-87
2022/10/12 11:01:22;;;;;;;13.48;10.80;;;19.30;71.10;;;;;;5049294;28;20730;-87
2022/10/12 11:03:55;;;;;;;12.02;9.85;;;19.40;69.80;;;;;;5048554;28;20212;-87
2022/10/12 11:06:38;;;;;;;12.43;9.88;;;19.70;70.40;;;;;;5046894;28;20623;-87
2022/10/12 11:09:12;;;;;;;13.48;10.70;;;19.70;69.50;;;;;;5046302;28;20855;-87
2022/10/12 11:11:39;;;;;;;12.88;9.43;;;19.90;68.40;;;;;;5050686;28;20191;-86
2022/10/12 11:14:19;;;;;;;13.43;10.43;;;20.10;68.20;;;;;;5035208;28;20283;-87
2022/10/12 11:16:49;;;;;;;11.25;10.07;;;20.30;67.60;;;;;;5049536;28;20263;-86
2022/10/12 11:19:35;;;;;;;13.50;10.85;;;20.30;66.50;;;;;;5051684;28;20210;-85
2022/10/12 11:22:14;;;;;;;14.75;11.38;;;20.10;67.90;;;;;;5044702;28;20219;-85
2022/10/12 11:24:46;;;;;;;14.18;10.60;;;19.80;70.80;;;;;;5053960;28;20176;-86
2022/10/12 11:27:25;;;;;;;14.70;10.65;;;19.90;69.60;;;;;;5048280;28;20215;-85
2022/10/12 11:29:55;;;;;;;14.80;10.75;;;20.30;66.60;;;;;;5045058;28;20222;-85
2022/10/12 11:32:31;;;;;;;16.35;11.45;;;20.70;66.50;;;;;;5045533;28;20211;-86
2022/10/12 11:35:01;;;;;;;14.85;11.27;;;20.80;66.30;;;;;;5038007;28;20174;-86
2022/10/12 11:37:56;;;;;;;13.63;10.80;;;20.70;68.40;;;;;;5041128;28;20656;-84
2022/10/12 11:40:32;;;;;;;11.48;10.27;;;20.90;66.80;;;;;;5042077;28;20200;-85
2022/10/12 11:43:04;;;;;;;12.55;10.27;;;21.20;64.70;;;;;;5045874;28;20261;-85
2022/10/12 11:45:36;;;;;;;14.05;11.02;;;21.60;61.80;;;;;;5048164;28;20248;-85
2022/10/12 11:48:09;;;;;;;12.35;10.93;;;21.10;64.40;;;;;;5048690;28;20211;-85
2022/10/12 11:50:39;;;;;;;14.50;10.73;;;21.20;63.80;;;;;;5049344;28;20426;-85
2022/10/12 11:53:13;;;;;;;12.57;10.48;;;21.60;61.90;;;;;;5048662;28;20223;-85
2022/10/12 11:56:00;;;;;;;11.63;10.40;;;21.80;60.00;;;;;;5064233;28;20676;-85
2022/10/12 11:58:29;;;;;;;10.93;9.93;;;21.00;63.80;;;;;;5048893;28;20191;-85
2022/10/12 12:01:15;;;;;;;11.82;10.45;;;20.70;65.50;;;;;;5050473;28;20178;-85
2022/10/12 12:03:43;;;;;;;12.07;10.88;;;20.70;65.40;;;;;;5048036;28;20711;-85
2022/10/12 12:06:28;;;;;;;13.02;10.82;;;21.40;61.50;;;;;;5048705;28;20189;-85
2022/10/12 12:09:02;;;;;;;15.70;10.98;;;22.10;58.20;;;;;;5048602;28;20618;-85
2022/10/12 12:11:30;;;;;;;11.52;10.00;;;22.10;60.80;;;;;;5050437;28;20214;-85
2022/10/12 12:14:26;;;;;;;14.30;10.88;;;21.10;63.90;;;;;;5050744;28;20231;-85
2022/10/12 12:17:20;;;;;;;14.73;10.52;;;20.80;65.90;;;;;;5032933;28;20193;-85
2022/10/12 12:19:51;;;;;;;11.15;9.38;;;21.50;61.70;;;;;;5051008;28;20210;-85
2022/10/12 12:22:35;;;;;;;12.90;10.77;;;22.20;59.10;;;;;;5050173;28;20722;-85
2022/10/12 12:25:09;;;;;;;11.23;9.57;;;22.50;58.10;;;;;;5047771;28;20214;-85
2022/10/12 12:27:48;;;;;;;11.23;9.38;;;22.70;57.10;;;;;;5042064;28;20275;-85
2022/10/12 12:30:21;;;;;;;10.60;9.57;;;22.50;58.20;;;;;;5049858;28;20192;-85
2022/10/12 12:32:54;;;;;;;13.90;10.55;;;22.20;58.70;;;;;;5050756;28;20222;-85
2022/10/12 12:35:28;;;;;;;12.30;9.32;;;22.30;58.40;;;;;;5050444;28;21166;-85
2022/10/12 12:38:16;;;;;;;12.73;9.70;;;22.50;57.30;;;;;;5050830;28;20185;-85
2022/10/12 12:40:56;;;;;;;13.80;9.93;;;23.00;56.60;;;;;;5048460;28;20184;-85
2022/10/12 12:43:28;;;;;;;11.48;9.57;;;23.50;53.80;;;;;;5049098;28;20200;-85
2022/10/12 12:45:56;;;;;;;9.93;8.90;;;23.70;53.00;;;;;;5051973;28;20230;-86
2022/10/12 12:48:42;;;;;;;10.43;9.40;;;23.90;52.90;;;;;;5048322;28;20188;-85
2022/10/12 12:51:37;;;;;;;10.80;9.73;;;24.10;51.90;;;;;;5044718;28;20783;-85
2022/10/12 12:54:20;;;;;;;10.98;9.55;;;24.30;51.40;;;;;;5045796;28;20247;-84
2022/10/12 12:57:01;;;;;;;12.82;10.07;;;24.70;49.20;;;;;;5052877;28;20191;-84
2022/10/12 12:59:45;;;;;;;9.70;8.57;;;24.60;49.60;;;;;;5049374;28;20716;-84